sensor_id;sensor_type;location;lat;lon;timestamp;P1;durP1;ratioP1;P2;durP2;ratioP2
40601;SDS011;26310;50.278;19.032;2023-05-19T04:46:16;5.00;;;3.27;;
40601;SDS011;26310;50.278;19.032;2023-05-19T04:51:25;4.93;;;3.13;;
40601;SDS011;26310;50.278;19.032;2023-05-19T04:56:31;7.10;;;3.30;;
40601;SDS011;26310;50.278;19.032;2023-05-19T05:01:34;4.53;;;3.47;;
40601;SDS011;26310;50.278;19.032;2023-05-19T05:06:40;7.07;;;3.70;;
40601;SDS011;26310;50.278;19.032;2023-05-19T05:11:48;4.73;;;3.33;;
40601;SDS011;26310;50.278;19.032;2023-05-19T05:16:52;6.37;;;3.87;;
40601;SDS011;26310;50.278;19.032;2023-05-19T05:21:55;6.17;;;3.10;;
40601;SDS011;26310;50.278;19.032;2023-05-19T05:26:58;8.40;;;3.90;;
40601;SDS011;26310;50.278;19.032;2023-05-19T05:32:01;9.57;;;4.63;;
40601;SDS011;26310;50.278;19.032;2023-05-19T05:37:04;6.03;;;4.10;;
40601;SDS011;26310;50.278;19.032;2023-05-19T05:42:07;9.37;;;4.63;;
40601;SDS011;26310;50.278;19.032;2023-05-19T05:47:11;7.67;;;4.50;;
40601;SDS011;26310;50.278;19.032;2023-05-19T05:52:14;6.53;;;4.37;;
40601;SDS011;26310;50.278;19.032;2023-05-19T05:57:19;8.97;;;4.97;;
40601;SDS011;26310;50.278;19.032;2023-05-19T06:02:22;6.93;;;4.70;;
40601;SDS011;26310;50.278;19.032;2023-05-19T06:07:25;6.97;;;4.40;;
40601;SDS011;26310;50.278;19.032;2023-05-19T06:12:28;7.90;;;5.07;;
40601;SDS011;26310;50.278;19.032;2023-05-19T06:17:31;7.37;;;5.27;;
40601;SDS011;26310;50.278;19.032;2023-05-19T06:22:36;6.20;;;4.53;;
40601;SDS011;26310;50.278;19.032;2023-05-19T06:27:39;9.90;;;4.87;;
40601;SDS011;26310;50.278;19.032;2023-05-19T06:32:42;7.30;;;4.37;;
40601;SDS011;26310;50.278;19.032;2023-05-19T06:37:44;6.27;;;4.50;;
40601;SDS011;26310;50.278;19.032;2023-05-19T06:42:47;8.23;;;4.87;;
40601;SDS011;26310;50.278;19.032;2023-05-19T06:47:50;7.87;;;4.67;;
40601;SDS011;26310;50.278;19.032;2023-05-19T06:52:54;7.70;;;5.23;;
40601;SDS011;26310;50.278;19.032;2023-05-19T06:58:00;6.90;;;4.37;;
40601;SDS011;26310;50.278;19.032;2023-05-19T07:03:02;6.77;;;4.97;;
40601;SDS011;26310;50.278;19.032;2023-05-19T07:08:05;8.00;;;4.20;;
40601;SDS011;26310;50.278;19.032;2023-05-19T07:13:08;4.93;;;3.37;;
40601;SDS011;26310;50.278;19.032;2023-05-19T07:18:11;6.67;;;3.70;;
40601;SDS011;26310;50.278;19.032;2023-05-19T07:23:14;6.77;;;4.70;;
40601;SDS011;26310;50.278;19.032;2023-05-19T07:28:18;5.13;;;3.23;;
40601;SDS011;26310;50.278;19.032;2023-05-19T07:33:20;6.10;;;4.07;;
40601;SDS011;26310;50.278;19.032;2023-05-19T07:38:23;5.87;;;3.87;;
40601;SDS011;26310;50.278;19.032;2023-05-19T07:43:26;6.83;;;4.27;;
40601;SDS011;26310;50.278;19.032;2023-05-19T07:48:29;8.60;;;3.73;;
40601;SDS011;26310;50.278;19.032;2023-05-19T07:53:31;6.63;;;4.20;;
40601;SDS011;26310;50.278;19.032;2023-05-19T07:58:34;7.33;;;4.13;;
40601;SDS011;26310;50.278;19.032;2023-05-19T08:03:37;6.90;;;3.97;;
40601;SDS011;26310;50.278;19.032;2023-05-19T08:08:40;5.50;;;3.03;;
40601;SDS011;26310;50.278;19.032;2023-05-19T08:13:43;8.00;;;3.60;;
40601;SDS011;26310;50.278;19.032;2023-05-19T08:18:49;8.40;;;4.33;;
40601;SDS011;26310;50.278;19.032;2023-05-19T08:23:52;4.67;;;3.33;;
40601;SDS011;26310;50.278;19.032;2023-05-19T08:28:55;6.97;;;3.90;;
40601;SDS011;26310;50.278;19.032;2023-05-19T08:33:57;6.60;;;3.70;;
40601;SDS011;26310;50.278;19.032;2023-05-19T08:39:00;10.10;;;4.53;;
40601;SDS011;26310;50.278;19.032;2023-05-19T08:44:03;6.70;;;4.90;;
40601;SDS011;26310;50.278;19.032;2023-05-19T08:49:13;6.83;;;4.40;;
40601;SDS011;26310;50.278;19.032;2023-05-19T08:54:17;6.10;;;4.53;;
40601;SDS011;26310;50.278;19.032;2023-05-19T08:59:21;6.73;;;4.83;;
40601;SDS011;26310;50.278;19.032;2023-05-19T09:04:24;6.70;;;4.90;;
40601;SDS011;26310;50.278;19.032;2023-05-19T09:09:31;8.13;;;5.03;;
40601;SDS011;26310;50.278;19.032;2023-05-19T09:14:33;6.53;;;4.00;;
40601;SDS011;26310;50.278;19.032;2023-05-19T09:19:41;6.73;;;4.30;;
40601;SDS011;26310;50.278;19.032;2023-05-19T09:24:45;6.53;;;4.67;;
40601;SDS011;26310;50.278;19.032;2023-05-19T09:29:48;6.50;;;4.13;;
40601;SDS011;26310;50.278;19.032;2023-05-19T09:34:52;6.47;;;4.53;;
40601;SDS011;26310;50.278;19.032;2023-05-19T09:39:55;6.60;;;4.40;;
40601;SDS011;26310;50.278;19.032;2023-05-19T09:45:00;6.30;;;3.93;;
40601;SDS011;26310;50.278;19.032;2023-05-19T09:50:04;4.83;;;3.80;;
40601;SDS011;26310;50.278;19.032;2023-05-19T09:55:09;6.50;;;4.50;;
40601;SDS011;26310;50.278;19.032;2023-05-19T10:00:13;12.77;;;5.27;;
40601;SDS011;26310;50.278;19.032;2023-05-19T10:05:19;5.73;;;3.77;;
40601;SDS011;26310;50.278;19.032;2023-05-19T10:10:22;5.67;;;4.07;;
40601;SDS011;26310;50.278;19.032;2023-05-19T10:15:25;6.50;;;4.30;;
40601;SDS011;26310;50.278;19.032;2023-05-19T10:20:28;6.40;;;4.67;;
40601;SDS011;26310;50.278;19.032;2023-05-19T10:25:31;5.33;;;4.03;;
40601;SDS011;26310;50.278;19.032;2023-05-19T10:30:36;6.40;;;4.50;;
40601;SDS011;26310;50.278;19.032;2023-05-19T10:40:58;7.30;;;4.70;;
40601;SDS011;26310;50.278;19.032;2023-05-19T10:46:09;7.13;;;3.97;;
40601;SDS011;26310;50.278;19.032;2023-05-19T10:51:13;6.10;;;3.73;;
40601;SDS011;26310;50.278;19.032;2023-05-19T10:56:29;6.00;;;4.53;;
40601;SDS011;26310;50.278;19.032;2023-05-19T11:01:34;9.60;;;4.70;;
40601;SDS011;26310;50.278;19.032;2023-05-19T11:06:39;7.47;;;4.47;;
40601;SDS011;26310;50.278;19.032;2023-05-19T11:11:49;9.10;;;4.83;;
40601;SDS011;26310;50.278;19.032;2023-05-19T11:16:56;5.87;;;4.90;;
40601;SDS011;26310;50.278;19.032;2023-05-19T11:22:09;5.40;;;4.67;;
40601;SDS011;26310;50.278;19.032;2023-05-19T11:27:32;7.63;;;5.70;;
40601;SDS011;26310;50.278;19.032;2023-05-19T11:32:36;7.37;;;5.87;;
40601;SDS011;26310;50.278;19.032;2023-05-19T11:37:45;6.50;;;4.40;;
40601;SDS011;26310;50.278;19.032;2023-05-19T11:42:48;7.90;;;5.70;;
40601;SDS011;26310;50.278;19.032;2023-05-19T11:47:50;9.63;;;5.27;;
40601;SDS011;26310;50.278;19.032;2023-05-19T11:53:00;7.53;;;5.27;;
40601;SDS011;26310;50.278;19.032;2023-05-19T11:58:03;5.43;;;4.50;;
40601;SDS011;26310;50.278;19.032;2023-05-19T12:03:07;6.17;;;4.80;;
40601;SDS011;26310;50.278;19.032;2023-05-19T12:08:10;7.73;;;4.93;;
40601;SDS011;26310;50.278;19.032;2023-05-19T12:13:13;4.73;;;3.97;;
40601;SDS011;26310;50.278;19.032;2023-05-19T12:18:16;7.33;;;5.10;;
40601;SDS011;26310;50.278;19.032;2023-05-19T12:23:19;5.57;;;4.30;;
40601;SDS011;26310;50.278;19.032;2023-05-19T12:28:22;5.67;;;4.57;;
40601;SDS011;26310;50.278;19.032;2023-05-19T12:33:25;7.20;;;5.13;;
40601;SDS011;26310;50.278;19.032;2023-05-19T12:38:28;6.90;;;5.40;;
40601;SDS011;26310;50.278;19.032;2023-05-19T12:43:30;6.20;;;4.70;;
40601;SDS011;26310;50.278;19.032;2023-05-19T12:48:42;7.10;;;5.50;;
40601;SDS011;26310;50.278;19.032;2023-05-19T12:53:46;6.47;;;5.27;;
40601;SDS011;26310;50.278;19.032;2023-05-19T12:58:52;6.07;;;4.70;;
40601;SDS011;26310;50.278;19.032;2023-05-19T13:03:55;5.67;;;4.80;;
40601;SDS011;26310;50.278;19.032;2023-05-19T13:08:58;6.10;;;4.97;;
40601;SDS011;26310;50.278;19.032;2023-05-19T13:14:01;7.17;;;5.43;;
40601;SDS011;26310;50.278;19.032;2023-05-19T13:19:04;6.07;;;4.70;;
40601;SDS011;26310;50.278;19.032;2023-05-19T13:24:07;7.70;;;4.33;;
40601;SDS011;26310;50.278;19.032;2023-05-19T13:29:10;5.00;;;4.30;;
40601;SDS011;26310;50.278;19.032;2023-05-19T13:34:12;5.87;;;4.23;;
40601;SDS011;26310;50.278;19.032;2023-05-19T13:39:15;6.17;;;4.77;;
40601;SDS011;26310;50.278;19.032;2023-05-19T13:44:18;7.97;;;5.40;;
40601;SDS011;26310;50.278;19.032;2023-05-19T13:49:21;6.77;;;4.90;;
40601;SDS011;26310;50.278;19.032;2023-05-19T13:54:24;7.47;;;5.00;;
40601;SDS011;26310;50.278;19.032;2023-05-19T13:59:26;6.33;;;4.77;;
40601;SDS011;26310;50.278;19.032;2023-05-19T14:04:30;10.87;;;7.17;;
40601;SDS011;26310;50.278;19.032;2023-05-19T14:09:33;9.07;;;6.60;;
40601;SDS011;26310;50.278;19.032;2023-05-19T14:14:36;10.90;;;6.60;;
40601;SDS011;26310;50.278;19.032;2023-05-19T14:19:38;6.40;;;4.63;;
40601;SDS011;26310;50.278;19.032;2023-05-19T14:24:41;7.77;;;6.37;;
40601;SDS011;26310;50.278;19.032;2023-05-19T14:29:44;10.33;;;6.67;;
40601;SDS011;26310;50.278;19.032;2023-05-19T14:34:47;7.97;;;6.03;;
40601;SDS011;26310;50.278;19.032;2023-05-19T14:39:53;13.53;;;8.53;;
40601;SDS011;26310;50.278;19.032;2023-05-19T14:44:56;12.60;;;8.13;;
40601;SDS011;26310;50.278;19.032;2023-05-19T14:49:59;12.90;;;7.63;;
40601;SDS011;26310;50.278;19.032;2023-05-19T14:55:02;12.13;;;8.10;;
40601;SDS011;26310;50.278;19.032;2023-05-19T15:00:05;14.50;;;8.40;;
40601;SDS011;26310;50.278;19.032;2023-05-19T15:05:10;18.07;;;9.33;;
40601;SDS011;26310;50.278;19.032;2023-05-19T15:10:13;13.37;;;9.57;;
40601;SDS011;26310;50.278;19.032;2023-05-19T15:15:17;16.47;;;8.37;;
40601;SDS011;26310;50.278;19.032;2023-05-19T15:20:19;13.07;;;9.40;;
40601;SDS011;26310;50.278;19.032;2023-05-19T15:25:22;14.80;;;9.63;;
40601;SDS011;26310;50.278;19.032;2023-05-19T15:30:25;13.17;;;8.23;;
40601;SDS011;26310;50.278;19.032;2023-05-19T15:35:28;12.23;;;8.27;;
40601;SDS011;26310;50.278;19.032;2023-05-19T15:40:31;16.27;;;8.67;;
40601;SDS011;26310;50.278;19.032;2023-05-19T15:45:34;12.47;;;7.60;;
40601;SDS011;26310;50.278;19.032;2023-05-19T15:50:37;11.83;;;7.77;;
40601;SDS011;26310;50.278;19.032;2023-05-19T15:55:40;15.63;;;10.17;;
40601;SDS011;26310;50.278;19.032;2023-05-19T16:00:43;19.17;;;9.13;;
40601;SDS011;26310;50.278;19.032;2023-05-19T16:05:45;17.57;;;9.67;;
40601;SDS011;26310;50.278;19.032;2023-05-19T16:10:48;16.83;;;10.27;;
40601;SDS011;26310;50.278;19.032;2023-05-19T16:15:51;21.60;;;12.70;;
40601;SDS011;26310;50.278;19.032;2023-05-19T16:20:54;21.83;;;12.70;;
40601;SDS011;26310;50.278;19.032;2023-05-19T16:25:57;18.83;;;11.23;;
40601;SDS011;26310;50.278;19.032;2023-05-19T16:31:00;18.77;;;11.50;;
40601;SDS011;26310;50.278;19.032;2023-05-19T16:36:03;18.63;;;11.80;;
40601;SDS011;26310;50.278;19.032;2023-05-19T16:41:09;17.70;;;10.53;;
40601;SDS011;26310;50.278;19.032;2023-05-19T16:46:13;22.20;;;12.60;;
40601;SDS011;26310;50.278;19.032;2023-05-19T16:51:15;18.07;;;9.90;;
40601;SDS011;26310;50.278;19.032;2023-05-19T16:56:18;10.73;;;8.00;;
40601;SDS011;26310;50.278;19.032;2023-05-19T17:01:22;11.57;;;7.97;;
40601;SDS011;26310;50.278;19.032;2023-05-19T17:06:25;13.13;;;8.23;;
40601;SDS011;26310;50.278;19.032;2023-05-19T17:11:27;14.43;;;8.87;;
40601;SDS011;26310;50.278;19.032;2023-05-19T17:16:30;13.80;;;7.90;;
40601;SDS011;26310;50.278;19.032;2023-05-19T17:21:34;12.67;;;9.00;;
40601;SDS011;26310;50.278;19.032;2023-05-19T17:26:36;10.73;;;7.17;;
40601;SDS011;26310;50.278;19.032;2023-05-19T17:31:39;10.83;;;7.30;;
40601;SDS011;26310;50.278;19.032;2023-05-19T17:36:42;9.87;;;6.03;;
40601;SDS011;26310;50.278;19.032;2023-05-19T17:41:45;10.87;;;7.27;;
40601;SDS011;26310;50.278;19.032;2023-05-19T17:46:48;15.67;;;7.93;;
40601;SDS011;26310;50.278;19.032;2023-05-19T17:51:51;12.63;;;8.07;;
40601;SDS011;26310;50.278;19.032;2023-05-19T17:56:54;11.30;;;7.00;;
40601;SDS011;26310;50.278;19.032;2023-05-19T18:01:59;9.77;;;6.90;;
40601;SDS011;26310;50.278;19.032;2023-05-19T18:07:03;12.63;;;7.80;;
40601;SDS011;26310;50.278;19.032;2023-05-19T18:12:06;12.50;;;7.13;;
40601;SDS011;26310;50.278;19.032;2023-05-19T18:17:09;9.60;;;6.90;;
40601;SDS011;26310;50.278;19.032;2023-05-19T18:22:12;10.57;;;6.77;;
40601;SDS011;26310;50.278;19.032;2023-05-19T18:27:15;9.40;;;6.67;;
40601;SDS011;26310;50.278;19.032;2023-05-19T18:32:18;10.93;;;7.27;;
40601;SDS011;26310;50.278;19.032;2023-05-19T18:37:21;8.93;;;6.57;;
40601;SDS011;26310;50.278;19.032;2023-05-19T18:42:24;11.60;;;6.20;;
40601;SDS011;26310;50.278;19.032;2023-05-19T18:47:26;10.07;;;6.57;;
40601;SDS011;26310;50.278;19.032;2023-05-19T18:52:29;9.97;;;5.63;;
40601;SDS011;26310;50.278;19.032;2023-05-19T18:57:32;8.20;;;5.73;;
40601;SDS011;26310;50.278;19.032;2023-05-19T19:02:35;10.37;;;7.50;;
40601;SDS011;26310;50.278;19.032;2023-05-19T19:07:39;10.20;;;6.93;;
40601;SDS011;26310;50.278;19.032;2023-05-19T19:12:42;12.13;;;7.50;;
40601;SDS011;26310;50.278;19.032;2023-05-19T19:17:45;10.13;;;6.83;;
40601;SDS011;26310;50.278;19.032;2023-05-19T19:22:48;11.97;;;7.37;;
40601;SDS011;26310;50.278;19.032;2023-05-19T19:27:52;13.83;;;8.23;;
40601;SDS011;26310;50.278;19.032;2023-05-19T19:32:55;13.33;;;7.53;;
40601;SDS011;26310;50.278;19.032;2023-05-19T19:37:58;12.27;;;7.03;;
40601;SDS011;26310;50.278;19.032;2023-05-19T19:43:01;12.87;;;7.13;;
40601;SDS011;26310;50.278;19.032;2023-05-19T19:48:04;12.73;;;7.30;;
40601;SDS011;26310;50.278;19.032;2023-05-19T19:53:10;13.23;;;6.73;;
40601;SDS011;26310;50.278;19.032;2023-05-19T19:58:13;13.67;;;7.27;;
40601;SDS011;26310;50.278;19.032;2023-05-19T20:03:16;12.40;;;8.13;;
40601;SDS011;26310;50.278;19.032;2023-05-19T20:08:19;15.07;;;8.70;;
40601;SDS011;26310;50.278;19.032;2023-05-19T20:13:22;11.10;;;8.17;;
40601;SDS011;26310;50.278;19.032;2023-05-19T20:18:25;12.80;;;8.03;;
40601;SDS011;26310;50.278;19.032;2023-05-19T20:23:30;10.07;;;6.70;;
40601;SDS011;26310;50.278;19.032;2023-05-19T20:28:33;13.27;;;7.27;;
40601;SDS011;26310;50.278;19.032;2023-05-19T20:33:36;10.83;;;6.40;;
40601;SDS011;26310;50.278;19.032;2023-05-19T20:38:39;10.93;;;5.97;;
40601;SDS011;26310;50.278;19.032;2023-05-19T20:43:42;11.87;;;7.17;;
40601;SDS011;26310;50.278;19.032;2023-05-19T20:48:45;11.03;;;6.50;;
40601;SDS011;26310;50.278;19.032;2023-05-19T20:53:47;10.77;;;7.23;;
40601;SDS011;26310;50.278;19.032;2023-05-19T20:58:50;9.87;;;5.63;;
40601;SDS011;26310;50.278;19.032;2023-05-19T21:03:53;12.10;;;7.00;;
40601;SDS011;26310;50.278;19.032;2023-05-19T21:08:55;12.93;;;7.27;;
40601;SDS011;26310;50.278;19.032;2023-05-19T21:14:00;15.47;;;7.27;;
40601;SDS011;26310;50.278;19.032;2023-05-19T21:19:05;10.50;;;6.80;;
40601;SDS011;26310;50.278;19.032;2023-05-19T21:24:08;10.77;;;7.10;;
40601;SDS011;26310;50.278;19.032;2023-05-19T21:29:13;15.23;;;8.07;;
40601;SDS011;26310;50.278;19.032;2023-05-19T21:34:16;14.63;;;7.97;;
40601;SDS011;26310;50.278;19.032;2023-05-19T21:39:18;12.30;;;7.87;;
40601;SDS011;26310;50.278;19.032;2023-05-19T21:44:21;14.43;;;8.80;;
40601;SDS011;26310;50.278;19.032;2023-05-19T21:49:25;14.60;;;8.70;;
40601;SDS011;26310;50.278;19.032;2023-05-19T21:54:28;15.00;;;8.80;;
40601;SDS011;26310;50.278;19.032;2023-05-19T21:59:31;16.93;;;8.73;;
40601;SDS011;26310;50.278;19.032;2023-05-19T22:04:33;17.53;;;9.00;;
40601;SDS011;26310;50.278;19.032;2023-05-19T22:09:37;14.97;;;9.30;;
40601;SDS011;26310;50.278;19.032;2023-05-19T22:14:40;16.27;;;7.80;;
40601;SDS011;26310;50.278;19.032;2023-05-19T22:19:43;20.40;;;10.43;;
40601;SDS011;26310;50.278;19.032;2023-05-19T22:24:46;17.27;;;9.80;;
40601;SDS011;26310;50.278;19.032;2023-05-19T22:29:49;14.83;;;9.77;;
40601;SDS011;26310;50.278;19.032;2023-05-19T22:34:52;11.60;;;7.93;;
40601;SDS011;26310;50.278;19.032;2023-05-19T22:39:55;12.17;;;7.70;;
40601;SDS011;26310;50.278;19.032;2023-05-19T22:44:57;13.17;;;8.70;;
40601;SDS011;26310;50.278;19.032;2023-05-19T22:50:00;23.53;;;9.83;;
40601;SDS011;26310;50.278;19.032;2023-05-19T22:55:03;15.60;;;7.67;;
40601;SDS011;26310;50.278;19.032;2023-05-19T23:00:07;15.27;;;8.20;;
40601;SDS011;26310;50.278;19.032;2023-05-19T23:05:10;14.90;;;7.47;;
40601;SDS011;26310;50.278;19.032;2023-05-19T23:10:13;19.07;;;8.47;;
40601;SDS011;26310;50.278;19.032;2023-05-19T23:15:16;13.43;;;7.37;;
40601;SDS011;26310;50.278;19.032;2023-05-19T23:20:18;17.33;;;8.17;;
40601;SDS011;26310;50.278;19.032;2023-05-19T23:25:21;14.13;;;8.23;;
40601;SDS011;26310;50.278;19.032;2023-05-19T23:30:24;12.90;;;8.03;;
40601;SDS011;26310;50.278;19.032;2023-05-19T23:35:29;16.20;;;8.17;;
40601;SDS011;26310;50.278;19.032;2023-05-19T23:40:31;13.17;;;7.07;;
40601;SDS011;26310;50.278;19.032;2023-05-19T23:45:34;13.63;;;7.27;;
